createdAt,value
2019-01-23T00:00:35.667Z,33.84
2019-01-23T00:01:35.663Z,33.66
2019-01-23T00:02:35.642Z,33.24
2019-01-23T00:03:35.643Z,33.54
2019-01-23T00:04:35.638Z,33.04
2019-01-23T00:05:35.611Z,33.14
2019-01-23T00:06:35.611Z,33.14
2019-01-23T00:07:35.599Z,33.54
2019-01-23T00:08:36.410Z,33.04
2019-01-23T00:09:35.617Z,33.64
2019-01-23T00:10:35.573Z,33.03
2019-01-23T00:11:35.567Z,32.82
2019-01-23T00:12:35.560Z,33.54
2019-01-23T00:13:35.586Z,32.74
2019-01-23T00:14:35.577Z,32.84
2019-01-23T00:15:35.511Z,33.04
2019-01-23T00:16:35.511Z,32.84
2019-01-23T00:17:35.489Z,32.94
2019-01-23T00:18:36.396Z,33.04
2019-01-23T00:19:35.492Z,33.04
2019-01-23T00:20:35.476Z,32.94
2019-01-23T00:21:35.505Z,33.14
2019-01-23T00:22:35.435Z,33.14
2019-01-23T00:23:35.420Z,32.44
2019-01-23T00:24:35.413Z,33.16
2019-01-23T00:25:35.415Z,32.76
2019-01-23T00:26:35.399Z,33.14
2019-01-23T00:27:35.386Z,33.04
2019-01-23T00:28:35.369Z,33.46
2019-01-23T00:29:35.361Z,33.24
2019-01-23T00:30:35.361Z,33.84
2019-01-23T00:31:35.345Z,32.74
2019-01-23T00:32:35.330Z,32.74
2019-01-23T00:33:35.320Z,32.94
2019-01-23T00:34:35.304Z,33.04
2019-01-23T00:35:35.364Z,32.04
2019-01-23T00:36:35.287Z,32.04
2019-01-23T00:37:35.289Z,33.14
2019-01-23T00:38:35.265Z,32.74
2019-01-23T00:39:35.262Z,32.23
2019-01-23T00:40:35.242Z,32.14
2019-01-23T00:41:35.248Z,32.24
2019-01-23T00:42:35.226Z,32.44
2019-01-23T00:43:35.212Z,32.14
2019-01-23T00:44:35.202Z,31.94
2019-01-23T00:45:35.191Z,32.96
2019-01-23T00:46:35.197Z,33.04
2019-01-23T00:47:35.175Z,32.86
2019-01-23T00:48:35.165Z,32.76
2019-01-23T00:49:35.149Z,32.76
2019-01-23T00:50:35.141Z,32.96
2019-01-23T00:51:35.147Z,33.16
2019-01-23T00:52:35.121Z,33.76
2019-01-23T00:53:35.114Z,33.46
2019-01-23T00:54:35.111Z,33.26
2019-01-23T00:55:35.087Z,33.06
2019-01-23T00:56:35.093Z,32.86
2019-01-23T00:57:35.071Z,33.06
2019-01-23T00:58:35.053Z,33.14
2019-01-23T00:59:35.057Z,32.94
2019-01-23T01:00:35.035Z,32.54
2019-01-23T01:01:35.047Z,33.24
2019-01-23T01:02:35.016Z,32.44
2019-01-23T01:03:35.001Z,32.14
2019-01-23T01:04:34.992Z,33.04
2019-01-23T01:05:35.001Z,32.84
2019-01-23T01:06:34.995Z,31.94
2019-01-23T01:07:34.959Z,31.94
2019-01-23T01:08:34.950Z,32.34
2019-01-23T01:09:34.938Z,32.44
2019-01-23T01:10:34.930Z,32.23
2019-01-23T01:11:34.910Z,32.54
2019-01-23T01:12:34.915Z,32.43
2019-01-23T01:13:34.909Z,32.94
2019-01-23T01:14:34.887Z,32.64
2019-01-23T01:15:34.885Z,32.54
2019-01-23T01:16:34.867Z,32.44
2019-01-23T01:17:34.890Z,32.04
2019-01-23T01:18:34.843Z,32.44
2019-01-23T01:19:34.836Z,32.46
2019-01-23T01:20:34.829Z,33.44
2019-01-23T01:21:34.814Z,31.94
2019-01-23T01:22:34.844Z,33.04
2019-01-23T01:23:34.797Z,32.14
2019-01-23T01:24:34.781Z,32.14
2019-01-23T01:25:34.775Z,32.54
2019-01-23T01:26:34.764Z,33.34
2019-01-23T01:27:34.783Z,32.14
2019-01-23T01:28:34.739Z,32.24
2019-01-23T01:29:34.733Z,32.34
2019-01-23T01:30:34.722Z,32.34
2019-01-23T01:31:34.711Z,32.54
2019-01-23T01:32:34.701Z,32.64
2019-01-23T01:33:34.704Z,32.74
2019-01-23T01:34:34.678Z,32.44
2019-01-23T01:35:34.671Z,32.62
2019-01-23T01:36:34.656Z,32.24
2019-01-23T01:37:34.652Z,31.64
2019-01-23T01:38:34.651Z,32.24
2019-01-23T01:39:34.643Z,32.54
2019-01-23T01:40:34.637Z,32.34
2019-01-23T01:41:34.611Z,32.44
2019-01-23T01:42:34.594Z,32.64
2019-01-23T01:43:34.603Z,32.15
2019-01-23T01:44:34.575Z,32.26
2019-01-23T01:45:34.562Z,32.15
2019-01-23T01:46:34.554Z,32.06
2019-01-23T01:47:34.540Z,32.24
2019-01-23T01:48:34.545Z,32.74
2019-01-23T01:49:34.528Z,32.54
2019-01-23T01:50:34.509Z,32.04
2019-01-23T01:51:34.513Z,32.44
2019-01-23T01:52:34.490Z,31.94
2019-01-23T01:53:34.494Z,31.84
2019-01-23T01:54:34.468Z,31.54
2019-01-23T01:55:34.457Z,31.54
2019-01-23T01:56:34.454Z,31.73
2019-01-23T01:57:34.438Z,31.54
2019-01-23T01:58:34.457Z,31.54
2019-01-23T01:59:34.413Z,31.64
2019-01-23T02:00:34.422Z,31.74
2019-01-23T02:01:34.397Z,31.34
2019-01-23T02:02:34.383Z,31.44
2019-01-23T02:03:34.406Z,31.74
2019-01-23T02:04:34.415Z,31.74
2019-01-23T02:05:34.351Z,31.85
2019-01-23T02:06:34.348Z,31.76
2019-01-23T02:07:34.339Z,31.76
2019-01-23T02:08:34.340Z,31.65
2019-01-23T02:09:35.559Z,32.56
2019-01-23T02:10:34.316Z,31.64
2019-01-23T02:11:34.291Z,31.65
2019-01-23T02:12:34.286Z,31.74
2019-01-23T02:13:34.284Z,31.84
2019-01-23T02:14:34.264Z,32.24
2019-01-23T02:15:34.249Z,31.94
2019-01-23T02:16:34.241Z,31.94
2019-01-23T02:17:34.229Z,31.94
2019-01-23T02:18:34.249Z,31.74
2019-01-23T02:19:34.207Z,31.94
2019-01-23T02:20:34.214Z,31.24
2019-01-23T02:21:34.188Z,31.74
2019-01-23T02:22:34.180Z,31.54
2019-01-23T02:23:34.168Z,31.64
2019-01-23T02:24:34.170Z,31.84
2019-01-23T02:25:34.149Z,31.64
2019-01-23T02:26:34.143Z,31.64
2019-01-23T02:27:34.139Z,31.64
2019-01-23T02:28:34.117Z,31.56
2019-01-23T02:29:34.121Z,32.35
2019-01-23T02:30:34.124Z,31.54
2019-01-23T02:31:34.089Z,31.76
2019-01-23T02:32:34.077Z,31.56
2019-01-23T02:33:34.080Z,31.85
2019-01-23T02:34:34.075Z,31.46
2019-01-23T02:35:34.067Z,31.54
2019-01-23T02:36:34.035Z,31.84
2019-01-23T02:37:34.025Z,31.74
2019-01-23T02:38:34.017Z,31.94
2019-01-23T02:39:34.018Z,31.54
2019-01-23T02:40:33.998Z,31.74
2019-01-23T02:41:33.989Z,31.64
2019-01-23T02:42:33.979Z,31.74
2019-01-23T02:43:33.978Z,31.64
2019-01-23T02:44:33.973Z,31.74
2019-01-23T02:45:33.949Z,31.54
2019-01-23T02:46:33.939Z,31.54
2019-01-23T02:47:33.923Z,31.54
2019-01-23T02:48:33.919Z,31.74
2019-01-23T02:49:33.917Z,31.54
2019-01-23T02:50:33.894Z,31.74
2019-01-23T02:51:33.891Z,31.54
2019-01-23T02:52:33.876Z,31.46
2019-01-23T02:53:33.866Z,31.46
2019-01-23T02:54:33.864Z,31.85
2019-01-23T02:55:33.853Z,31.85
2019-01-23T02:56:33.842Z,31.74
2019-01-23T02:57:33.822Z,31.64
2019-01-23T02:58:33.818Z,31.65
2019-01-23T02:59:33.816Z,31.96
2019-01-23T03:00:33.794Z,31.76
2019-01-23T03:01:33.782Z,31.54
2019-01-23T03:02:33.767Z,31.44
2019-01-23T03:03:33.762Z,31.64
2019-01-23T03:04:33.775Z,31.74
2019-01-23T03:05:33.744Z,31.04
2019-01-23T03:06:33.735Z,31.12
2019-01-23T03:07:33.721Z,30.94
2019-01-23T03:08:33.720Z,31.64
2019-01-23T03:09:33.708Z,31.44
2019-01-23T03:10:33.715Z,31.14
2019-01-23T03:11:33.676Z,31.84
2019-01-23T03:12:33.684Z,31.34
2019-01-23T03:13:33.665Z,31.64
2019-01-23T03:14:33.646Z,31.84
2019-01-23T03:15:33.650Z,31.44
2019-01-23T03:16:33.627Z,31.35
2019-01-23T03:17:33.615Z,31.46
2019-01-23T03:18:33.609Z,31.65
2019-01-23T03:19:33.597Z,31.34
2019-01-23T03:20:33.595Z,31.05
2019-01-23T03:21:33.583Z,31.64
2019-01-23T03:22:33.564Z,31.65
2019-01-23T03:23:33.555Z,31.85
2019-01-23T03:24:33.542Z,31.24
2019-01-23T03:25:33.551Z,31.85
2019-01-23T03:26:33.532Z,31.85
2019-01-23T03:27:33.527Z,31.65
2019-01-23T03:28:33.513Z,31.15
2019-01-23T03:29:33.492Z,31.26
2019-01-23T03:30:33.508Z,31.85
2019-01-23T03:31:33.490Z,31.46
2019-01-23T03:32:33.488Z,31.67
2019-01-23T03:33:33.453Z,31.57
2019-01-23T03:34:33.450Z,31.77
2019-01-23T03:35:33.448Z,32.18
2019-01-23T03:36:33.421Z,31.99
2019-01-23T03:37:33.414Z,31.67
2019-01-23T03:38:33.399Z,31.67
2019-01-23T03:39:33.393Z,31.57
2019-01-23T03:40:33.398Z,32.47
2019-01-23T03:41:33.365Z,31.87
2019-01-23T03:42:33.358Z,31.96
2019-01-23T03:43:33.349Z,31.46
2019-01-23T03:44:33.338Z,31.76
2019-01-23T03:45:33.334Z,31.76
2019-01-23T03:46:33.341Z,31.85
2019-01-23T03:47:33.320Z,31.15
2019-01-23T03:48:33.311Z,31.96
2019-01-23T03:49:33.284Z,31.64
2019-01-23T03:50:33.286Z,31.14
2019-01-23T03:51:33.279Z,31.04
2019-01-23T03:52:33.254Z,31.14
2019-01-23T03:53:33.246Z,30.94
2019-01-23T03:54:33.232Z,31.14
2019-01-23T03:55:33.230Z,30.64
2019-01-23T03:56:33.210Z,30.04
2019-01-23T03:57:33.208Z,31.54
2019-01-23T03:58:33.189Z,29.84
2019-01-23T03:59:33.206Z,31.24
2019-01-23T04:00:33.176Z,31.44
2019-01-23T04:01:33.156Z,31.44
2019-01-23T04:02:33.161Z,30.54
2019-01-23T04:03:33.133Z,30.85
2019-01-23T04:04:33.130Z,30.15
2019-01-23T04:05:33.139Z,30.45
2019-01-23T04:06:33.099Z,31.65
2019-01-23T04:07:33.099Z,31.15
2019-01-23T04:08:33.080Z,31.26
2019-01-23T04:09:33.092Z,31.17
2019-01-23T04:10:33.086Z,31.15
2019-01-23T04:11:33.049Z,31.26
2019-01-23T04:12:33.041Z,31.67
2019-01-23T04:13:33.028Z,31.57
2019-01-23T04:14:33.019Z,31.57
2019-01-23T04:15:33.992Z,31.57
2019-01-23T04:16:32.996Z,31.77
2019-01-23T04:17:32.982Z,32.06
2019-01-23T04:18:32.977Z,31.76
2019-01-23T04:19:32.963Z,31.35
2019-01-23T04:20:32.966Z,31.24
2019-01-23T04:21:32.942Z,31.44
2019-01-23T04:22:32.930Z,30.04
2019-01-23T04:23:32.920Z,30.04
2019-01-23T04:24:32.914Z,30.43
2019-01-23T04:25:32.918Z,30.43
2019-01-23T04:26:32.890Z,30.51
2019-01-23T04:27:32.929Z,29.80
2019-01-23T04:28:32.872Z,30.29
2019-01-23T04:29:39.272Z,29.80
2019-01-23T04:30:33.862Z,29.90
2019-01-23T04:31:32.840Z,30.19
2019-01-23T04:32:32.824Z,29.80
2019-01-23T04:33:32.828Z,29.90
2019-01-23T04:34:32.883Z,29.80
2019-01-23T04:35:32.816Z,29.48
2019-01-23T04:36:32.789Z,29.38
2019-01-23T04:37:32.780Z,29.57
2019-01-23T04:38:32.762Z,28.87
2019-01-23T04:39:32.759Z,28.87
2019-01-23T04:40:32.853Z,29.36
2019-01-23T04:41:32.736Z,28.68
2019-01-23T04:42:32.755Z,28.58
2019-01-23T04:43:32.720Z,28.68
2019-01-23T04:44:32.707Z,28.98
2019-01-23T04:45:32.691Z,28.98
2019-01-23T04:46:32.720Z,28.98
2019-01-23T04:47:32.708Z,29.28
2019-01-23T04:48:32.665Z,29.90
2019-01-23T04:49:32.654Z,30.08
2019-01-23T04:50:32.639Z,28.78
2019-01-23T04:51:32.652Z,29.48
2019-01-23T04:52:32.621Z,29.18
2019-01-23T04:53:32.624Z,28.97
2019-01-23T04:54:32.605Z,28.77
2019-01-23T04:55:32.594Z,28.77
2019-01-23T04:56:32.606Z,28.67
2019-01-23T04:57:32.566Z,28.97
2019-01-23T04:58:32.559Z,28.67
2019-01-23T04:59:33.451Z,28.07
2019-01-23T05:00:32.546Z,28.67
2019-01-23T05:01:32.548Z,28.37
2019-01-23T05:02:32.516Z,28.57
2019-01-23T05:03:32.501Z,28.37
2019-01-23T05:04:32.490Z,28.88
2019-01-23T05:05:32.479Z,28.98
2019-01-23T05:06:32.477Z,29.38
2019-01-23T05:07:32.481Z,29.18
2019-01-23T05:08:32.457Z,29.68
2019-01-23T05:09:32.439Z,28.78
2019-01-23T05:10:32.428Z,29.68
2019-01-23T05:11:32.415Z,29.18
2019-01-23T05:12:32.421Z,28.98
2019-01-23T05:13:32.398Z,29.36
2019-01-23T05:14:32.383Z,29.67
2019-01-23T05:15:32.378Z,28.87
2019-01-23T05:16:32.362Z,28.66
2019-01-23T05:17:32.396Z,28.96
2019-01-23T05:18:32.347Z,28.45
2019-01-23T05:19:32.332Z,28.75
2019-01-23T05:20:32.323Z,29.25
2019-01-23T05:21:32.312Z,28.75
2019-01-23T05:22:32.310Z,28.45
2019-01-23T05:23:32.317Z,28.96
2019-01-23T05:24:32.276Z,28.96
2019-01-23T05:25:32.302Z,29.36
2019-01-23T05:26:32.269Z,29.85
2019-01-23T05:27:32.241Z,29.95
2019-01-23T05:28:32.254Z,29.25
2019-01-23T05:29:32.229Z,28.97
2019-01-23T05:30:32.220Z,28.97
2019-01-23T05:31:32.201Z,29.27
2019-01-23T05:32:32.202Z,28.47
2019-01-23T05:33:32.195Z,29.38
2019-01-23T05:34:32.180Z,29.48
2019-01-23T05:35:32.166Z,29.08
2019-01-23T05:36:32.152Z,29.58
2019-01-23T05:37:32.175Z,28.88
2019-01-23T05:38:32.157Z,29.78
2019-01-23T05:39:32.125Z,29.98
2019-01-23T05:40:32.118Z,30.10
2019-01-23T05:41:32.093Z,30.10
2019-01-23T05:42:32.087Z,30.18
2019-01-23T05:43:32.093Z,30.38
2019-01-23T05:44:32.067Z,30.40
2019-01-23T05:45:32.057Z,29.80
2019-01-23T05:46:32.045Z,29.60
2019-01-23T05:47:32.037Z,29.99
2019-01-23T05:48:32.041Z,30.10
2019-01-23T05:49:32.011Z,30.19
2019-01-23T05:50:32.005Z,30.61
2019-01-23T05:51:32.006Z,30.41
2019-01-23T05:52:31.987Z,30.21
2019-01-23T05:53:31.988Z,31.51
2019-01-23T05:54:31.959Z,31.73
2019-01-23T05:55:31.952Z,31.43
2019-01-23T05:56:31.942Z,31.73
2019-01-23T05:57:31.930Z,31.62
2019-01-23T05:58:31.947Z,32.04
2019-01-23T05:59:31.910Z,32.24
2019-01-23T06:00:31.896Z,33.04
2019-01-23T06:01:31.890Z,34.64
2019-01-23T06:02:31.894Z,34.36
2019-01-23T06:03:32.288Z,34.46
2019-01-23T06:04:31.869Z,34.36
2019-01-23T06:05:31.845Z,35.16
2019-01-23T06:06:31.838Z,35.96
2019-01-23T06:07:31.834Z,35.98
2019-01-23T06:08:31.818Z,37.18
2019-01-23T06:09:31.824Z,37.48
2019-01-23T06:10:31.791Z,37.59
2019-01-23T06:11:31.785Z,36.60
2019-01-23T06:12:31.769Z,37.30
2019-01-23T06:13:31.761Z,37.60
2019-01-23T06:14:31.778Z,38.12
2019-01-23T06:15:31.737Z,37.32
2019-01-23T06:16:31.730Z,38.12
2019-01-23T06:17:31.721Z,38.12
2019-01-23T06:18:31.712Z,38.10
2019-01-23T06:19:31.707Z,37.80
2019-01-23T06:20:31.697Z,37.20
2019-01-23T06:21:31.679Z,37.28
2019-01-23T06:22:31.670Z,37.20
2019-01-23T06:23:31.654Z,38.20
2019-01-23T06:24:31.645Z,37.30
2019-01-23T06:25:31.647Z,36.38
2019-01-23T06:26:31.624Z,36.48
2019-01-23T06:27:31.625Z,36.38
2019-01-23T06:28:31.605Z,36.96
2019-01-23T06:29:31.591Z,36.36
2019-01-23T06:30:31.608Z,36.46
2019-01-23T06:31:31.578Z,36.26
2019-01-23T06:32:31.562Z,37.46
2019-01-23T06:33:31.550Z,36.07
2019-01-23T06:34:31.540Z,30.64
2019-01-23T06:35:31.544Z,29.35
2019-01-23T06:36:31.521Z,29.85
2019-01-23T06:37:31.520Z,30.15
2019-01-23T06:38:31.498Z,31.57
2019-01-23T06:39:31.499Z,31.77
2019-01-23T06:40:31.502Z,31.37
2019-01-23T06:41:31.478Z,32.79
2019-01-23T06:42:31.458Z,32.47
2019-01-23T06:43:31.448Z,32.27
2019-01-23T06:44:31.440Z,32.47
2019-01-23T06:45:31.460Z,32.27
2019-01-23T06:46:31.415Z,32.57
2019-01-23T06:47:31.410Z,32.46
2019-01-23T06:48:31.398Z,32.46
2019-01-23T06:49:31.411Z,32.06
2019-01-23T06:50:31.378Z,32.27
2019-01-23T06:51:31.380Z,31.85
2019-01-23T06:52:31.355Z,32.46
2019-01-23T06:53:31.348Z,32.96
2019-01-23T06:54:31.336Z,33.06
2019-01-23T06:55:31.333Z,32.86
2019-01-23T06:56:31.330Z,32.86
2019-01-23T06:57:31.305Z,33.06
2019-01-23T06:58:31.332Z,33.56
2019-01-23T06:59:31.284Z,33.96
2019-01-23T07:00:31.280Z,34.06
2019-01-23T07:01:31.286Z,33.26
2019-01-23T07:02:31.261Z,33.56
2019-01-23T07:03:31.243Z,33.36
2019-01-23T07:04:31.237Z,33.86
2019-01-23T07:05:31.228Z,33.64
2019-01-23T07:06:31.231Z,34.14
2019-01-23T07:07:31.219Z,33.44
2019-01-23T07:08:31.190Z,33.84
2019-01-23T07:09:31.180Z,33.64
2019-01-23T07:10:31.177Z,33.64
2019-01-23T07:11:31.162Z,34.64
2019-01-23T07:12:31.169Z,33.44
2019-01-23T07:13:31.142Z,33.44
2019-01-23T07:14:31.145Z,34.44
2019-01-23T07:15:31.118Z,33.44
2019-01-23T07:16:31.114Z,34.05
2019-01-23T07:17:31.136Z,33.33
2019-01-23T07:18:31.090Z,34.44
2019-01-23T07:19:31.078Z,33.12
2019-01-23T07:20:31.074Z,34.73
2019-01-23T07:21:31.057Z,34.43
2019-01-23T07:22:31.063Z,34.23
2019-01-23T07:23:31.065Z,33.83
2019-01-23T07:24:31.030Z,34.33
2019-01-23T07:25:31.027Z,34.33
2019-01-23T07:26:31.001Z,34.03
2019-01-23T07:27:30.999Z,34.63
2019-01-23T07:28:31.006Z,33.93
2019-01-23T07:29:30.970Z,34.23
2019-01-23T07:30:30.976Z,34.21
2019-01-23T07:31:30.951Z,34.51
2019-01-23T07:32:30.950Z,34.11
2019-01-23T07:33:30.953Z,34.23
2019-01-23T07:34:30.924Z,34.12
2019-01-23T07:35:30.906Z,34.43
2019-01-23T07:36:30.899Z,34.33
2019-01-23T07:37:30.887Z,34.63
2019-01-23T07:38:30.872Z,34.33
2019-01-23T07:39:30.878Z,34.43
2019-01-23T07:40:30.850Z,34.63
2019-01-23T07:41:30.843Z,34.43
2019-01-23T07:42:30.832Z,34.93
2019-01-23T07:43:30.822Z,34.24
2019-01-23T07:44:30.830Z,35.14
2019-01-23T07:45:30.799Z,34.14
2019-01-23T07:46:30.790Z,34.53
2019-01-23T07:47:30.781Z,34.94
2019-01-23T07:48:30.767Z,35.25
2019-01-23T07:49:30.769Z,34.64
2019-01-23T07:50:30.747Z,34.44
2019-01-23T07:51:30.734Z,35.35
2019-01-23T07:52:30.738Z,34.94
2019-01-23T07:53:30.712Z,34.44
2019-01-23T07:54:30.720Z,34.74
2019-01-23T07:55:30.698Z,34.74
2019-01-23T07:56:30.681Z,34.73
2019-01-23T07:57:30.670Z,34.55
2019-01-23T07:58:30.658Z,34.73
2019-01-23T07:59:30.666Z,35.05
2019-01-23T08:00:31.468Z,35.44
2019-01-23T08:01:30.635Z,35.35
2019-01-23T08:02:30.618Z,35.44
2019-01-23T08:03:30.615Z,35.05
2019-01-23T08:04:30.595Z,34.84
2019-01-23T08:05:30.603Z,35.43
2019-01-23T08:06:30.575Z,35.14
2019-01-23T08:07:30.561Z,36.15
2019-01-23T08:08:30.553Z,35.03
2019-01-23T08:09:30.539Z,34.93
2019-01-23T08:10:30.552Z,35.03
2019-01-23T08:11:30.525Z,35.03
2019-01-23T08:12:30.507Z,34.53
2019-01-23T08:13:30.499Z,34.23
2019-01-23T08:14:30.489Z,35.03
2019-01-23T08:15:30.477Z,34.23
2019-01-23T08:16:30.493Z,34.43
2019-01-23T08:17:32.970Z,34.93
2019-01-23T08:18:30.446Z,35.53
2019-01-23T08:19:30.435Z,35.13
2019-01-23T08:20:30.421Z,35.33
2019-01-23T08:21:30.431Z,35.33
2019-01-23T08:22:30.403Z,35.14
2019-01-23T08:23:30.387Z,35.14
2019-01-23T08:24:30.381Z,35.25
2019-01-23T08:25:30.389Z,35.05
2019-01-23T08:26:30.371Z,35.25
2019-01-23T08:27:30.347Z,35.35
2019-01-23T08:28:30.350Z,35.25
2019-01-23T08:29:30.327Z,35.33
2019-01-23T08:30:30.314Z,35.35
2019-01-23T08:31:30.320Z,35.35
2019-01-23T08:32:30.299Z,35.33
2019-01-23T08:33:30.280Z,35.14
2019-01-23T08:34:30.271Z,35.05
2019-01-23T08:35:30.261Z,34.64
2019-01-23T08:36:30.274Z,35.55
2019-01-23T08:37:30.243Z,34.74
2019-01-23T08:38:30.228Z,35.26
2019-01-23T08:39:30.221Z,35.16
2019-01-23T08:40:30.205Z,35.85
2019-01-23T08:41:30.567Z,35.86
2019-01-23T08:42:30.182Z,35.96
2019-01-23T08:43:30.178Z,35.96
2019-01-23T08:44:30.165Z,35.76
2019-01-23T08:45:30.156Z,36.18
2019-01-23T08:46:30.163Z,35.76
2019-01-23T08:47:30.136Z,35.56
2019-01-23T08:48:30.121Z,36.28
2019-01-23T08:49:30.113Z,36.18
2019-01-23T08:50:30.103Z,36.08
2019-01-23T08:51:30.127Z,35.88
2019-01-23T08:52:30.101Z,35.98
2019-01-23T08:53:30.071Z,35.98
2019-01-23T08:54:30.061Z,36.30
2019-01-23T08:55:30.047Z,36.18
2019-01-23T08:56:30.041Z,36.78
2019-01-23T08:57:30.041Z,36.28
2019-01-23T08:58:30.016Z,35.98
2019-01-23T08:59:30.010Z,35.98
2019-01-23T09:00:29.996Z,35.48
2019-01-23T09:01:29.991Z,35.76
2019-01-23T09:02:30.555Z,35.36
2019-01-23T09:03:29.965Z,35.96
2019-01-23T09:04:29.952Z,35.66
2019-01-23T09:05:29.941Z,35.46
2019-01-23T09:06:29.929Z,35.56
2019-01-23T09:07:29.935Z,36.15
2019-01-23T09:08:29.911Z,35.26
2019-01-23T09:09:29.897Z,34.96
2019-01-23T09:10:29.887Z,35.14
2019-01-23T09:11:29.877Z,35.44
2019-01-23T09:12:29.890Z,34.94
2019-01-23T09:13:29.854Z,34.94
2019-01-23T09:14:29.845Z,35.05
2019-01-23T09:15:29.832Z,34.24
2019-01-23T09:16:29.822Z,34.53
2019-01-23T09:17:29.807Z,34.94
2019-01-23T09:18:29.809Z,34.53
2019-01-23T09:19:29.791Z,34.63
2019-01-23T09:20:29.786Z,35.03
2019-01-23T09:21:29.768Z,34.93
2019-01-23T09:22:29.768Z,34.83
2019-01-23T09:23:29.755Z,34.93
2019-01-23T09:24:29.737Z,34.53
2019-01-23T09:25:29.731Z,34.53
2019-01-23T09:26:29.725Z,34.63
2019-01-23T09:27:29.701Z,34.53
2019-01-23T09:28:29.710Z,34.53
2019-01-23T09:29:29.685Z,34.73
2019-01-23T09:30:29.669Z,34.63
2019-01-23T09:31:29.663Z,34.73
2019-01-23T09:32:29.649Z,33.93
2019-01-23T09:33:29.650Z,34.61
2019-01-23T09:34:29.623Z,34.31
2019-01-23T09:35:29.622Z,34.31
2019-01-23T09:36:29.602Z,34.43
2019-01-23T09:37:29.593Z,34.53
2019-01-23T09:38:29.620Z,35.13
2019-01-23T09:39:29.574Z,35.13
2019-01-23T09:40:29.569Z,34.83
2019-01-23T09:41:29.557Z,35.23
2019-01-23T09:42:29.538Z,34.63
2019-01-23T09:43:29.540Z,34.53
2019-01-23T09:44:29.539Z,34.73
2019-01-23T09:45:29.502Z,33.83
2019-01-23T09:46:29.524Z,34.23
2019-01-23T09:47:29.495Z,34.03
2019-01-23T09:48:29.475Z,34.23
2019-01-23T09:49:29.483Z,34.33
2019-01-23T09:50:29.459Z,34.33
2019-01-23T09:51:29.446Z,34.12
2019-01-23T09:52:29.441Z,34.12
2019-01-23T09:53:29.419Z,34.53
2019-01-23T09:54:29.440Z,34.03
2019-01-23T09:55:29.404Z,34.12
2019-01-23T09:56:29.392Z,34.43
2019-01-23T09:57:29.379Z,33.83
2019-01-23T09:58:29.390Z,34.12
2019-01-23T09:59:29.355Z,34.33
2019-01-23T10:00:31.940Z,34.43
2019-01-23T10:01:29.344Z,34.63
2019-01-23T10:02:29.334Z,34.33
2019-01-23T10:03:29.313Z,34.64
2019-01-23T10:04:29.474Z,34.83
2019-01-23T10:05:29.314Z,34.24
2019-01-23T10:06:29.277Z,34.55
2019-01-23T10:07:29.366Z,34.03
2019-01-23T10:08:29.260Z,34.34
2019-01-23T10:09:29.249Z,34.73
2019-01-23T10:10:29.250Z,34.33
2019-01-23T10:11:29.237Z,33.12
2019-01-23T10:12:29.218Z,33.94
2019-01-23T10:13:29.204Z,34.12
2019-01-23T10:14:29.198Z,34.44
2019-01-23T10:15:29.193Z,33.84
2019-01-23T10:16:29.175Z,34.55
2019-01-23T10:17:29.164Z,34.14
2019-01-23T10:18:29.150Z,34.05
2019-01-23T10:19:29.146Z,34.34
2019-01-23T10:20:29.183Z,34.44
2019-01-23T10:21:29.122Z,34.12
2019-01-23T10:22:29.111Z,34.74
2019-01-23T10:23:29.100Z,34.44
2019-01-23T10:24:35.685Z,34.44
2019-01-23T10:25:30.150Z,34.34
2019-01-23T10:26:29.068Z,34.55
2019-01-23T10:27:29.049Z,34.14
2019-01-23T10:28:29.045Z,34.23
2019-01-23T10:29:29.029Z,33.73
2019-01-23T10:30:29.017Z,34.74
2019-01-23T10:31:29.023Z,34.33
2019-01-23T10:32:29.004Z,34.53
2019-01-23T10:33:28.990Z,34.23
2019-01-23T10:34:28.980Z,33.64
2019-01-23T10:35:28.990Z,34.43
2019-01-23T10:36:28.972Z,34.23
2019-01-23T10:37:28.942Z,34.12
2019-01-23T10:38:28.940Z,34.23
2019-01-23T10:39:28.921Z,34.73
2019-01-23T10:40:28.922Z,34.43
2019-01-23T10:41:28.920Z,34.23
2019-01-23T10:42:28.893Z,33.83
2019-01-23T10:43:28.881Z,34.53
2019-01-23T10:44:28.874Z,33.64
2019-01-23T10:45:28.860Z,34.63
2019-01-23T10:46:28.875Z,34.33
2019-01-23T10:47:28.841Z,34.73
2019-01-23T10:48:28.827Z,34.03
2019-01-23T10:49:28.820Z,33.43
2019-01-23T10:50:28.808Z,34.03
2019-01-23T10:51:28.794Z,33.12
2019-01-23T10:52:28.803Z,33.73
2019-01-23T10:53:28.772Z,33.33
2019-01-23T10:54:28.771Z,33.23
2019-01-23T10:55:28.758Z,34.83
2019-01-23T10:56:28.740Z,34.03
2019-01-23T10:57:28.748Z,34.73
2019-01-23T10:58:28.726Z,33.73
2019-01-23T10:59:28.710Z,34.12
2019-01-23T11:00:28.698Z,33.83
2019-01-23T11:01:28.697Z,34.53
2019-01-23T11:02:28.708Z,33.12
2019-01-23T11:03:28.669Z,33.73
2019-01-23T11:04:28.665Z,33.33
2019-01-23T11:05:28.646Z,33.33
2019-01-23T11:06:28.635Z,33.73
2019-01-23T11:07:28.624Z,34.12
2019-01-23T11:08:28.627Z,33.62
2019-01-23T11:09:28.740Z,33.83
2019-01-23T11:10:28.590Z,34.03
2019-01-23T11:11:28.583Z,33.23
2019-01-23T11:12:28.595Z,33.62
2019-01-23T11:13:28.573Z,33.62
2019-01-23T11:14:28.545Z,33.83
2019-01-23T11:15:28.534Z,33.53
2019-01-23T11:16:28.526Z,34.03
2019-01-23T11:17:28.526Z,33.43
2019-01-23T11:18:28.520Z,33.43
2019-01-23T11:19:28.493Z,33.12
2019-01-23T11:20:28.478Z,33.33
2019-01-23T11:21:28.472Z,33.33
2019-01-23T11:22:28.468Z,33.73
2019-01-23T11:23:28.475Z,33.62
2019-01-23T11:24:28.434Z,33.44
2019-01-23T11:25:28.431Z,33.54
2019-01-23T11:26:28.422Z,33.64
2019-01-23T11:27:28.410Z,34.64
2019-01-23T11:28:28.400Z,33.44
2019-01-23T11:29:28.402Z,34.36
2019-01-23T11:30:28.375Z,34.06
2019-01-23T11:31:28.367Z,33.56
2019-01-23T11:32:28.352Z,34.06
2019-01-23T11:33:28.340Z,33.66
2019-01-23T11:34:28.350Z,34.26
2019-01-23T11:35:28.323Z,34.36
2019-01-23T11:36:28.308Z,34.66
2019-01-23T11:37:28.304Z,33.28
2019-01-23T11:38:28.289Z,34.76
2019-01-23T11:39:28.292Z,33.46
2019-01-23T11:40:28.264Z,34.46
2019-01-23T11:41:28.253Z,34.36
2019-01-23T11:42:28.244Z,33.56
2019-01-23T11:43:28.234Z,34.66
2019-01-23T11:44:28.251Z,33.76
2019-01-23T11:45:28.214Z,34.34
2019-01-23T11:46:28.203Z,33.46
2019-01-23T11:47:28.188Z,33.44
2019-01-23T11:48:28.183Z,33.74
2019-01-23T11:49:28.174Z,33.44
2019-01-23T11:50:28.175Z,33.53
2019-01-23T11:51:28.147Z,33.53
2019-01-23T11:52:28.136Z,33.53
2019-01-23T11:53:28.134Z,33.03
2019-01-23T11:54:28.117Z,33.23
2019-01-23T11:55:28.116Z,33.12
2019-01-23T11:56:28.094Z,33.33
2019-01-23T11:57:28.091Z,33.03
2019-01-23T11:58:28.068Z,33.03
2019-01-23T11:59:28.063Z,33.33
2019-01-23T12:00:28.072Z,33.03
2019-01-23T12:01:28.052Z,32.01
2019-01-23T12:02:30.914Z,32.81
2019-01-23T12:03:28.019Z,32.01
2019-01-23T12:04:28.006Z,32.41
2019-01-23T12:05:28.004Z,32.41
2019-01-23T12:06:27.996Z,32.41
2019-01-23T12:07:28.007Z,32.21
2019-01-23T12:08:27.967Z,32.41
2019-01-23T12:09:27.965Z,32.61
2019-01-23T12:10:27.946Z,32.31
2019-01-23T12:11:27.950Z,32.01
2019-01-23T12:12:27.955Z,32.71
2019-01-23T12:13:27.907Z,32.21
2019-01-23T12:14:27.900Z,32.61
2019-01-23T12:15:27.889Z,31.91
2019-01-23T12:16:27.890Z,31.91
2019-01-23T12:17:27.870Z,32.21
2019-01-23T12:18:27.861Z,32.41
2019-01-23T12:19:27.847Z,32.41
2019-01-23T12:20:27.839Z,31.51
2019-01-23T12:21:27.840Z,32.21
2019-01-23T12:22:27.816Z,32.31
2019-01-23T12:23:27.805Z,33.21
2019-01-23T12:24:27.797Z,31.71
2019-01-23T12:25:27.791Z,31.71
2019-01-23T12:26:27.791Z,31.51
2019-01-23T12:27:27.760Z,31.51
2019-01-23T12:28:27.752Z,32.41
2019-01-23T12:29:27.742Z,31.51
2019-01-23T12:30:27.759Z,31.51
2019-01-23T12:31:34.643Z,32.61
2019-01-23T12:32:28.710Z,32.23
2019-01-23T12:33:27.702Z,32.53
2019-01-23T12:34:27.685Z,32.12
2019-01-23T12:35:27.680Z,32.82
2019-01-23T12:36:27.698Z,32.23
2019-01-23T12:37:27.658Z,31.82
2019-01-23T12:38:27.644Z,32.73
2019-01-23T12:39:27.638Z,32.23
2019-01-23T12:40:27.629Z,32.73
2019-01-23T12:41:27.619Z,31.62
2019-01-23T12:42:27.624Z,31.62
2019-01-23T12:43:27.598Z,32.23
2019-01-23T12:44:27.582Z,32.43
2019-01-23T12:45:27.576Z,31.62
2019-01-23T12:46:27.561Z,31.73
2019-01-23T12:47:27.570Z,32.53
2019-01-23T12:48:27.543Z,32.03
2019-01-23T12:49:27.534Z,31.73
2019-01-23T12:50:27.519Z,31.32
2019-01-23T12:51:27.510Z,31.51
2019-01-23T12:52:27.516Z,32.41